Time;durP1;ratioP1;P1;durP2;ratioP2;P2;SDS_P1;SDS_P2;PMS_P1;PMS_P2;Temp;Humidity;BMP_temperature;BMP_pressure;BME280_temperature;BME280_humidity;BME280_pressure;Samples;Min_cycle;Max_cycle;Signal;HPM_P1;HPM_P2
2021/01/24 00:02:16;;;;;;;7.85;6.72;;;;;;;;;;5059011;28;20209;-84
2021/01/24 00:04:42;;;;;;;7.22;6.38;;;;;;;;;;5058621;28;20190;-84
2021/01/24 00:07:09;;;;;;;8.00;6.95;;;;;;;;;;5058779;28;20609;-84
2021/01/24 00:09:36;;;;;;;12.27;7.18;;;;;;;;;;5058614;28;20196;-84
2021/01/24 00:12:06;;;;;;;8.25;7.45;;;;;;;;;;5059025;28;20186;-84
2021/01/24 00:14:33;;;;;;;8.55;7.30;;;;;;;;;;5058935;28;20182;-84
2021/01/24 00:17:00;;;;;;;11.80;8.25;;;;;;;;;;5058404;28;20206;-84
2021/01/24 00:19:27;;;;;;;7.18;6.30;;;;;;;;;;5058316;28;20228;-84
2021/01/24 00:21:53;;;;;;;8.80;7.80;;;;;;;;;;5058456;28;20189;-84
2021/01/24 00:24:20;;;;;;;8.75;7.88;;;;;;;;;;5056662;28;20210;-85
2021/01/24 00:26:47;;;;;;;8.40;7.50;;;;;;;;;;5058369;28;20213;-88
2021/01/24 00:29:15;;;;;;;9.93;8.77;;;;;;;;;;5058097;28;20229;-87
2021/01/24 00:31:42;;;;;;;10.02;7.97;;;;;;;;;;5058679;28;20196;-86
2021/01/24 00:34:09;;;;;;;9.65;8.43;;;;;;;;;;5058630;28;20196;-86
2021/01/24 00:36:36;;;;;;;9.27;7.78;;;;;;;;;;5058459;28;20209;-86
2021/01/24 00:39:04;;;;;;;11.35;8.73;;;;;;;;;;5057739;28;20547;-86
2021/01/24 00:41:31;;;;;;;10.93;8.85;;;;;;;;;;5058681;28;20210;-86
2021/01/24 00:43:58;;;;;;;10.95;8.77;;;;;;;;;;5058511;28;20188;-86
2021/01/24 00:46:26;;;;;;;12.27;8.93;;;;;;;;;;5058218;28;20221;-85
2021/01/24 00:48:53;;;;;;;11.65;8.68;;;;;;;;;;5058003;28;20274;-86
2021/01/24 00:51:22;;;;;;;11.23;7.88;;;;;;;;;;5058387;28;20183;-87
2021/01/24 00:53:49;;;;;;;10.23;8.98;;;;;;;;;;5058368;28;20193;-87
2021/01/24 00:56:16;;;;;;;10.35;8.63;;;;;;;;;;5057321;28;20212;-88
2021/01/24 00:58:43;;;;;;;9.27;7.88;;;;;;;;;;5057891;28;20202;-87
2021/01/24 01:01:10;;;;;;;9.30;8.40;;;;;;;;;;5058252;28;20198;-86
2021/01/24 01:03:40;;;;;;;8.07;6.93;;;;;;;;;;5058331;28;20182;-86
2021/01/24 01:06:07;;;;;;;10.90;8.05;;;;;;;;;;5058152;28;20186;-86
2021/01/24 01:08:34;;;;;;;9.68;7.80;;;;;;;;;;5058383;28;20531;-86
2021/01/24 01:11:01;;;;;;;8.40;7.60;;;;;;;;;;5058165;28;20448;-86
2021/01/24 01:13:28;;;;;;;7.18;6.47;;;;;;;;;;5058068;28;20179;-85
2021/01/24 01:15:55;;;;;;;8.77;6.95;;;;;;;;;;5058416;28;20201;-86
2021/01/24 01:18:22;;;;;;;7.03;6.32;;;;;;;;;;5058626;28;20202;-86
2021/01/24 01:20:50;;;;;;;7.47;6.78;;;;;;;;;;5058254;28;20465;-87
2021/01/24 01:23:17;;;;;;;8.02;7.22;;;;;;;;;;5058322;28;20201;-88
2021/01/24 01:25:44;;;;;;;7.78;6.97;;;;;;;;;;5058245;28;20216;-85
2021/01/24 01:28:11;;;;;;;7.88;6.40;;;;;;;;;;5055766;28;20230;-87
2021/01/24 01:30:38;;;;;;;6.20;5.38;;;;;;;;;;5057747;28;20629;-87
2021/01/24 01:33:05;;;;;;;8.23;6.55;;;;;;;;;;5057915;28;20178;-87
2021/01/24 01:35:32;;;;;;;7.00;6.10;;;;;;;;;;5058343;28;20204;-87
2021/01/24 01:38:00;;;;;;;9.25;6.97;;;;;;;;;;5058083;28;20209;-87
2021/01/24 01:40:27;;;;;;;9.77;6.93;;;;;;;;;;5058289;28;20223;-87
2021/01/24 01:42:55;;;;;;;9.00;7.07;;;;;;;;;;5052417;28;20192;-87
2021/01/24 01:45:23;;;;;;;6.63;5.90;;;;;;;;;;5056605;28;20464;-85
2021/01/24 01:47:51;;;;;;;8.63;7.05;;;;;;;;;;5057361;28;20205;-85
2021/01/24 01:50:18;;;;;;;6.68;6.00;;;;;;;;;;5057335;28;20225;-88
2021/01/24 01:52:46;;;;;;;8.27;6.60;;;;;;;;;;5057620;28;20197;-88
2021/01/24 01:55:15;;;;;;;9.18;6.50;;;;;;;;;;5057210;28;20182;-87
2021/01/24 01:57:42;;;;;;;8.23;6.82;;;;;;;;;;5057771;28;20178;-86
2021/01/24 02:00:10;;;;;;;9.90;7.18;;;;;;;;;;5057486;28;20217;-87
2021/01/24 02:02:57;;;;;;;8.05;6.30;;;;;;;;;;5057349;28;20179;-87
2021/01/24 02:05:34;;;;;;;7.18;6.32;;;;;;;;;;5057203;28;20503;-87
2021/01/24 02:08:07;;;;;;;8.23;6.65;;;;;;;;;;5057587;28;20202;-88
2021/01/24 02:10:40;;;;;;;7.93;6.57;;;;;;;;;;5058150;28;20278;-88
2021/01/24 02:13:22;;;;;;;10.18;7.55;;;;;;;;;;5057679;28;20198;-88
2021/01/24 02:15:50;;;;;;;8.32;6.95;;;;;;;;;;5062187;28;20197;-89
2021/01/24 02:18:18;;;;;;;7.97;7.18;;;;;;;;;;5061671;28;20268;-89
2021/01/24 02:20:52;;;;;;;9.45;8.23;;;;;;;;;;5061998;28;20278;-89
2021/01/24 02:23:22;;;;;;;7.90;7.00;;;;;;;;;;5061666;28;20198;-88
2021/01/24 02:25:55;;;;;;;7.70;6.90;;;;;;;;;;5061905;28;20530;-88
2021/01/24 02:28:52;;;;;;;8.65;7.60;;;;;;;;;;5061284;28;20234;-87
2021/01/24 02:31:20;;;;;;;7.93;7.05;;;;;;;;;;5061627;28;20198;-88
2021/01/24 02:33:48;;;;;;;8.95;7.68;;;;;;;;;;5061239;28;20275;-88
2021/01/24 02:36:15;;;;;;;7.32;6.63;;;;;;;;;;5061458;28;20536;-88
2021/01/24 02:38:44;;;;;;;7.97;6.88;;;;;;;;;;5060866;28;20190;-88
2021/01/24 02:41:11;;;;;;;7.28;6.50;;;;;;;;;;5010453;28;20260;-88
2021/01/24 02:43:39;;;;;;;8.88;7.47;;;;;;;;;;5060823;28;20208;-89
2021/01/24 02:46:06;;;;;;;9.80;7.22;;;;;;;;;;5060821;28;20179;-88
2021/01/24 02:48:34;;;;;;;10.45;8.35;;;;;;;;;;5060877;28;20217;-88
2021/01/24 02:51:02;;;;;;;8.32;7.20;;;;;;;;;;5060862;28;20194;-88
2021/01/24 02:53:30;;;;;;;9.95;8.27;;;;;;;;;;5060840;28;20185;-88
2021/01/24 02:55:57;;;;;;;9.30;8.35;;;;;;;;;;5060941;28;20190;-88
2021/01/24 02:58:24;;;;;;;8.35;7.28;;;;;;;;;;5060657;28;20178;-88
2021/01/24 03:00:51;;;;;;;8.80;7.82;;;;;;;;;;5060895;28;20619;-88
2021/01/24 03:03:18;;;;;;;7.78;6.80;;;;;;;;;;5060315;28;20814;-88
2021/01/24 03:05:46;;;;;;;7.20;6.15;;;;;;;;;;5060435;28;20562;-88
2021/01/24 03:08:13;;;;;;;7.22;6.20;;;;;;;;;;5060506;28;20212;-88
2021/01/24 03:10:41;;;;;;;6.70;6.10;;;;;;;;;;5060316;28;20205;-88
2021/01/24 03:13:12;;;;;;;6.85;5.78;;;;;;;;;;5060180;28;20526;-88
2021/01/24 03:15:40;;;;;;;8.75;7.03;;;;;;;;;;5060420;28;20182;-88
2021/01/24 03:18:10;;;;;;;6.97;6.28;;;;;;;;;;5060535;28;20201;-88
2021/01/24 03:20:41;;;;;;;7.03;5.93;;;;;;;;;;5060186;28;20189;-88
2021/01/24 03:23:09;;;;;;;7.95;6.07;;;;;;;;;;5060130;28;20186;-88
2021/01/24 03:25:37;;;;;;;6.15;5.55;;;;;;;;;;5059835;28;20202;-87
2021/01/24 03:28:06;;;;;;;6.43;5.72;;;;;;;;;;5060036;28;20283;-88
2021/01/24 03:30:33;;;;;;;6.88;5.80;;;;;;;;;;5060014;28;20304;-88
2021/01/24 03:33:00;;;;;;;6.95;5.75;;;;;;;;;;5059649;28;20522;-87
2021/01/24 03:35:27;;;;;;;6.95;5.75;;;;;;;;;;5060094;28;20189;-87
2021/01/24 03:37:54;;;;;;;6.25;5.60;;;;;;;;;;5060167;28;20192;-89
2021/01/24 03:40:22;;;;;;;6.10;5.50;;;;;;;;;;5060426;28;20205;-89
2021/01/24 03:42:49;;;;;;;7.63;6.93;;;;;;;;;;5060122;28;20275;-89
2021/01/24 03:45:16;;;;;;;8.20;6.63;;;;;;;;;;5059645;28;20277;-89
2021/01/24 03:47:43;;;;;;;7.22;6.53;;;;;;;;;;5059992;28;20235;-88
2021/01/24 03:50:12;;;;;;;6.15;5.18;;;;;;;;;;5059940;28;20186;-88
2021/01/24 03:52:39;;;;;;;6.40;5.78;;;;;;;;;;5059796;28;20198;-88
2021/01/24 03:55:07;;;;;;;6.57;5.85;;;;;;;;;;5059616;28;20201;-88
2021/01/24 03:57:35;;;;;;;5.25;4.75;;;;;;;;;;5059957;28;20186;-87
2021/01/24 04:00:03;;;;;;;5.55;5.03;;;;;;;;;;5059456;28;20222;-87
2021/01/24 04:02:30;;;;;;;6.15;5.03;;;;;;;;;;5059579;28;20194;-87
2021/01/24 04:04:57;;;;;;;4.88;4.47;;;;;;;;;;5059509;28;20211;-88
2021/01/24 04:07:24;;;;;;;5.32;4.72;;;;;;;;;;5059400;28;20205;-88
2021/01/24 04:09:51;;;;;;;4.40;4.00;;;;;;;;;;5059506;28;20277;-87
2021/01/24 04:12:18;;;;;;;4.40;4.00;;;;;;;;;;5059736;28;20370;-87
2021/01/24 04:14:46;;;;;;;5.25;4.65;;;;;;;;;;5058817;28;20559;-87
2021/01/24 04:17:13;;;;;;;4.85;4.45;;;;;;;;;;5059103;28;20182;-87
2021/01/24 04:19:40;;;;;;;5.03;4.63;;;;;;;;;;5058964;28;20554;-87
2021/01/24 04:22:07;;;;;;;5.35;4.70;;;;;;;;;;5058975;28;20190;-87
2021/01/24 04:24:34;;;;;;;5.75;4.50;;;;;;;;;;5058520;28;20198;-87
2021/01/24 04:27:01;;;;;;;6.03;5.40;;;;;;;;;;5059194;28;20194;-86
2021/01/24 04:29:28;;;;;;;5.68;5.07;;;;;;;;;;5058397;28;20230;-87
2021/01/24 04:31:56;;;;;;;5.00;4.45;;;;;;;;;;5058632;28;20528;-87
2021/01/24 04:34:23;;;;;;;5.55;4.45;;;;;;;;;;5058663;28;20209;-86
2021/01/24 04:36:50;;;;;;;5.00;4.50;;;;;;;;;;5057867;28;20194;-87
2021/01/24 04:39:17;;;;;;;5.07;4.50;;;;;;;;;;5058493;28;20497;-87
2021/01/24 04:41:44;;;;;;;4.78;4.18;;;;;;;;;;5058613;28;20200;-87
2021/01/24 04:44:11;;;;;;;4.68;4.28;;;;;;;;;;5058522;28;20189;-86
2021/01/24 04:46:38;;;;;;;5.00;4.60;;;;;;;;;;5058484;28;20204;-86
2021/01/24 04:49:06;;;;;;;5.35;4.85;;;;;;;;;;5058188;28;20476;-87
2021/01/24 04:51:33;;;;;;;6.30;5.18;;;;;;;;;;5058316;28;20421;-87
2021/01/24 04:54:01;;;;;;;5.68;5.18;;;;;;;;;;5058371;28;20236;-86
2021/01/24 04:56:29;;;;;;;5.03;4.53;;;;;;;;;;5058629;28;20190;-85
2021/01/24 04:58:56;;;;;;;5.18;4.68;;;;;;;;;;5058317;28;20194;-87
2021/01/24 05:01:25;;;;;;;5.53;5.03;;;;;;;;;;5058440;28;20190;-87
2021/01/24 05:03:52;;;;;;;4.35;3.95;;;;;;;;;;5057703;28;20194;-87
2021/01/24 05:06:20;;;;;;;5.03;4.43;;;;;;;;;;5058186;28;20197;-87
2021/01/24 05:08:48;;;;;;;5.57;4.95;;;;;;;;;;5057925;28;20224;-87
2021/01/24 05:11:15;;;;;;;5.22;4.72;;;;;;;;;;5058467;28;20209;-87
2021/01/24 05:13:42;;;;;;;5.15;4.65;;;;;;;;;;5057821;28;20280;-87
2021/01/24 05:16:09;;;;;;;4.65;4.25;;;;;;;;;;5057981;28;20225;-87
2021/01/24 05:18:37;;;;;;;5.32;4.78;;;;;;;;;;5058296;28;20201;-86
2021/01/24 05:21:07;;;;;;;5.53;4.78;;;;;;;;;;5058112;28;20204;-87
2021/01/24 05:23:37;;;;;;;5.25;4.63;;;;;;;;;;5057932;28;20193;-87
2021/01/24 05:26:09;;;;;;;5.15;4.70;;;;;;;;;;5057967;28;20182;-86
2021/01/24 05:28:47;;;;;;;4.25;3.85;;;;;;;;;;5058036;28;20241;-87
2021/01/24 05:31:15;;;;;;;4.97;4.38;;;;;;;;;;5058294;28;20201;-88
2021/01/24 05:33:44;;;;;;;4.97;4.50;;;;;;;;;;5057233;28;20208;-87
2021/01/24 05:36:11;;;;;;;4.93;4.43;;;;;;;;;;5058098;28;20254;-88
2021/01/24 05:38:39;;;;;;;4.85;4.32;;;;;;;;;;5057877;28;20574;-87
2021/01/24 05:41:08;;;;;;;4.65;4.25;;;;;;;;;;5057782;28;20205;-87
2021/01/24 05:43:38;;;;;;;5.30;4.72;;;;;;;;;;5057722;28;20276;-88
2021/01/24 05:46:05;;;;;;;5.03;4.53;;;;;;;;;;5057890;28;20288;-88
2021/01/24 05:48:33;;;;;;;5.18;4.68;;;;;;;;;;5057801;28;20598;-89
2021/01/24 05:51:02;;;;;;;4.65;3.92;;;;;;;;;;5062320;28;20283;-87
2021/01/24 05:53:30;;;;;;;4.43;3.92;;;;;;;;;;5062109;28;20216;-88
2021/01/24 05:55:58;;;;;;;5.35;4.85;;;;;;;;;;5061801;28;20272;-87
2021/01/24 05:58:25;;;;;;;4.68;4.20;;;;;;;;;;5061865;28;20201;-88
2021/01/24 06:00:54;;;;;;;5.22;4.72;;;;;;;;;;5061936;28;20217;-89
2021/01/24 06:03:21;;;;;;;5.15;4.65;;;;;;;;;;5061522;28;20194;-89
2021/01/24 06:05:49;;;;;;;4.72;4.32;;;;;;;;;;5062086;28;20212;-88
2021/01/24 06:08:16;;;;;;;5.15;4.68;;;;;;;;;;5061539;28;20285;-87
2021/01/24 06:10:43;;;;;;;4.63;4.22;;;;;;;;;;5062013;28;20276;-88
2021/01/24 06:13:15;;;;;;;5.13;4.63;;;;;;;;;;5061490;28;20201;-88
2021/01/24 06:15:42;;;;;;;5.32;4.47;;;;;;;;;;5061676;28;20198;-88
2021/01/24 06:18:15;;;;;;;5.20;4.70;;;;;;;;;;5061617;28;20201;-88
2021/01/24 06:20:49;;;;;;;5.28;4.30;;;;;;;;;;5061732;28;20510;-87
2021/01/24 06:23:22;;;;;;;4.47;4.07;;;;;;;;;;5061849;28;20594;-88
2021/01/24 06:25:53;;;;;;;11.98;10.07;;;;;;;;;;5061471;28;20224;-88
2021/01/24 06:28:26;;;;;;;5.93;5.32;;;;;;;;;;5061390;28;22545;-88
2021/01/24 06:30:53;;;;;;;7.18;6.13;;;;;;;;;;5061416;28;20214;-88
2021/01/24 06:33:22;;;;;;;5.47;4.72;;;;;;;;;;5061349;28;20198;-88
2021/01/24 06:35:51;;;;;;;264.17;119.00;;;;;;;;;;5061004;28;20567;-88
2021/01/24 06:38:30;;;;;;;32.22;15.02;;;;;;;;;;5061314;28;20206;-88
2021/01/24 06:40:58;;;;;;;169.45;72.75;;;;;;;;;;5061321;28;20496;-88
2021/01/24 06:43:50;;;;;;;436.38;219.13;;;;;;;;;;5061368;28;20266;-88
2021/01/24 06:46:42;;;;;;;52.85;24.23;;;;;;;;;;5046231;28;20630;-87
2021/01/24 06:49:09;;;;;;;19.88;11.18;;;;;;;;;;5060971;28;20294;-87
2021/01/24 06:51:38;;;;;;;11.43;7.32;;;;;;;;;;5060892;28;20192;-87
2021/01/24 06:54:07;;;;;;;7.97;5.80;;;;;;;;;;5061182;28;20585;-88
2021/01/24 06:56:39;;;;;;;6.13;5.47;;;;;;;;;;5060992;28;20186;-87
2021/01/24 06:59:07;;;;;;;5.63;5.00;;;;;;;;;;5060415;28;20492;-89
2021/01/24 07:01:35;;;;;;;4.38;3.95;;;;;;;;;;5060657;28;20197;-88
2021/01/24 07:04:33;;;;;;;4.88;4.15;;;;;;;;;;5060735;28;20479;-88
2021/01/24 07:07:01;;;;;;;5.85;5.35;;;;;;;;;;5060817;28;20210;-88
2021/01/24 07:09:42;;;;;;;4.00;3.60;;;;;;;;;;5060660;28;20222;-88
2021/01/24 07:12:11;;;;;;;10.07;9.18;;;;;;;;;;5060894;28;20289;-88
2021/01/24 07:14:51;;;;;;;6.88;6.18;;;;;;;;;;5060644;28;20201;-88
2021/01/24 07:17:20;;;;;;;5.78;5.28;;;;;;;;;;5061123;28;20222;-88
2021/01/24 07:19:48;;;;;;;5.95;5.45;;;;;;;;;;5060619;28;20194;-88
2021/01/24 07:22:18;;;;;;;4.60;4.20;;;;;;;;;;5060774;28;20205;-89
2021/01/24 07:24:47;;;;;;;5.53;5.03;;;;;;;;;;5060512;28;20254;-89
2021/01/24 07:27:16;;;;;;;4.82;4.38;;;;;;;;;;5060656;28;20571;-88
2021/01/24 07:29:43;;;;;;;4.32;3.90;;;;;;;;;;5059833;28;20317;-88
2021/01/24 07:32:14;;;;;;;5.80;5.10;;;;;;;;;;5060398;28;20288;-89
2021/01/24 07:34:42;;;;;;;5.50;5.00;;;;;;;;;;5060212;28;20221;-88
2021/01/24 07:37:11;;;;;;;5.85;5.25;;;;;;;;;;5060327;28;20209;-88
2021/01/24 07:39:38;;;;;;;5.47;4.97;;;;;;;;;;5060087;28;20617;-88
2021/01/24 07:42:06;;;;;;;5.50;5.00;;;;;;;;;;5060030;28;20548;-89
2021/01/24 07:44:33;;;;;;;6.43;5.10;;;;;;;;;;5060372;28;20289;-88
2021/01/24 07:47:00;;;;;;;5.25;4.60;;;;;;;;;;5060363;28;20276;-90
2021/01/24 07:49:28;;;;;;;6.80;5.40;;;;;;;;;;5059793;28;20221;-90
2021/01/24 07:51:55;;;;;;;6.38;5.63;;;;;;;;;;5060232;28;20264;-89
2021/01/24 07:54:23;;;;;;;7.05;6.43;;;;;;;;;;5059989;28;20194;-89
2021/01/24 07:56:50;;;;;;;6.85;6.18;;;;;;;;;;5060018;28;20208;-89
2021/01/24 07:59:18;;;;;;;6.82;5.95;;;;;;;;;;5059682;28;20242;-88
2021/01/24 08:01:46;;;;;;;7.53;6.82;;;;;;;;;;5059718;28;20277;-89
2021/01/24 08:04:13;;;;;;;7.80;5.90;;;;;;;;;;5060110;28;20279;-89
2021/01/24 08:06:41;;;;;;;8.88;7.90;;;;;;;;;;5059929;28;20198;-88
2021/01/24 08:09:10;;;;;;;16.73;13.07;;;;;;;;;;5059426;28;20596;-89
2021/01/24 08:11:38;;;;;;;9.85;8.05;;;;;;;;;;5058643;28;20198;-88
2021/01/24 08:14:05;;;;;;;9.48;7.63;;;;;;;;;;5059876;28;20197;-88
2021/01/24 08:16:36;;;;;;;10.73;7.88;;;;;;;;;;5059370;28;20277;-89
2021/01/24 08:19:04;;;;;;;9.73;8.10;;;;;;;;;;5059373;28;20229;-89
2021/01/24 08:21:33;;;;;;;9.13;8.02;;;;;;;;;;5059375;28;20277;-89
2021/01/24 08:24:02;;;;;;;8.63;7.68;;;;;;;;;;5059366;28;20606;-88
2021/01/24 08:26:29;;;;;;;9.65;8.63;;;;;;;;;;5059485;28;20202;-89
2021/01/24 08:28:57;;;;;;;9.55;8.10;;;;;;;;;;5058966;28;20317;-88
2021/01/24 08:31:37;;;;;;;9.38;8.07;;;;;;;;;;5059381;28;20550;-89
2021/01/24 08:34:04;;;;;;;9.63;7.85;;;;;;;;;;5059629;28;20263;-87
2021/01/24 08:36:32;;;;;;;8.68;7.75;;;;;;;;;;5058905;28;20213;-88
2021/01/24 08:39:01;;;;;;;8.38;6.75;;;;;;;;;;5059560;28;20277;-87
2021/01/24 08:41:33;;;;;;;8.48;7.13;;;;;;;;;;5059241;28;20201;-88
2021/01/24 08:44:10;;;;;;;7.40;6.70;;;;;;;;;;5059261;28;20509;-88
2021/01/24 08:46:40;;;;;;;7.47;6.78;;;;;;;;;;5059051;28;20198;-90
2021/01/24 08:49:10;;;;;;;10.32;8.30;;;;;;;;;;5058653;28;20174;-88
2021/01/24 08:51:55;;;;;;;8.80;7.60;;;;;;;;;;5059185;28;20198;-89
2021/01/24 08:54:29;;;;;;;12.68;9.10;;;;;;;;;;5058494;28;20567;-88
2021/01/24 08:57:13;;;;;;;10.52;8.13;;;;;;;;;;5058529;28;20209;-86
2021/01/24 08:59:56;;;;;;;8.43;6.97;;;;;;;;;;5058367;28;20222;-87
2021/01/24 09:02:29;;;;;;;9.10;7.78;;;;;;;;;;5059710;28;20207;-88
2021/01/24 09:04:56;;;;;;;8.77;7.70;;;;;;;;;;5059030;28;20206;-87
2021/01/24 09:07:23;;;;;;;7.90;7.10;;;;;;;;;;5059040;28;20573;-87
2021/01/24 09:09:54;;;;;;;8.38;7.40;;;;;;;;;;5058825;28;20201;-87
2021/01/24 09:12:21;;;;;;;7.00;6.25;;;;;;;;;;5058239;28;20543;-87
2021/01/24 09:14:49;;;;;;;9.05;7.35;;;;;;;;;;5058347;28;20178;-87
2021/01/24 09:17:19;;;;;;;8.60;7.13;;;;;;;;;;5058554;28;20247;-86
2021/01/24 09:19:47;;;;;;;7.50;6.55;;;;;;;;;;5008949;28;20338;-87
2021/01/24 09:22:18;;;;;;;9.52;6.47;;;;;;;;;;5059154;28;20198;-87
2021/01/24 09:24:45;;;;;;;6.72;5.80;;;;;;;;;;5059085;28;20202;-88
2021/01/24 09:27:15;;;;;;;6.45;5.63;;;;;;;;;;5058887;28;20198;-87
2021/01/24 09:29:43;;;;;;;7.97;6.93;;;;;;;;;;5058121;28;20307;-87
2021/01/24 09:32:10;;;;;;;7.40;6.57;;;;;;;;;;5058548;28;20523;-89
2021/01/24 09:34:38;;;;;;;6.22;5.43;;;;;;;;;;5059371;28;20514;-89
2021/01/24 09:37:05;;;;;;;6.07;5.47;;;;;;;;;;5058298;28;20343;-89
2021/01/24 09:39:33;;;;;;;8.63;7.80;;;;;;;;;;5059116;28;20198;-88
2021/01/24 09:42:00;;;;;;;14.98;12.18;;;;;;;;;;5058232;28;20182;-88
2021/01/24 09:44:28;;;;;;;12.02;9.55;;;;;;;;;;5058739;28;20272;-89
2021/01/24 09:46:55;;;;;;;16.63;11.48;;;;;;;;;;5058194;28;20217;-88
2021/01/24 09:49:22;;;;;;;13.30;10.07;;;;;;;;;;5058638;28;20201;-89
2021/01/24 09:51:49;;;;;;;12.98;10.77;;;;;;;;;;5058905;28;20276;-89
2021/01/24 09:54:17;;;;;;;8.27;6.82;;;;;;;;;;5058274;28;20207;-88
2021/01/24 09:56:45;;;;;;;4.90;4.07;;;;;;;;;;5058062;28;20224;-90
2021/01/24 09:59:13;;;;;;;4.32;3.90;;;;;;;;;;5058122;28;20232;-89
2021/01/24 10:01:41;;;;;;;4.10;3.70;;;;;;;;;;5058271;28;20186;-90
2021/01/24 10:04:11;;;;;;;4.97;4.57;;;;;;;;;;5058639;28;20197;-91
2021/01/24 10:06:39;;;;;;;5.55;4.35;;;;;;;;;;5058632;28;20206;-90
2021/01/24 10:09:06;;;;;;;4.50;4.10;;;;;;;;;;5058870;28;20190;-89
2021/01/24 10:11:33;;;;;;;4.93;3.40;;;;;;;;;;5058540;28;20221;-90
2021/01/24 10:14:00;;;;;;;4.70;4.00;;;;;;;;;;5058622;28;20470;-89
2021/01/24 10:16:29;;;;;;;4.00;3.53;;;;;;;;;;5058922;28;20280;-90
2021/01/24 10:18:58;;;;;;;4.70;3.95;;;;;;;;;;5058850;28;20190;-89
2021/01/24 10:21:25;;;;;;;3.50;3.20;;;;;;;;;;5058508;28;20206;-89
2021/01/24 10:23:52;;;;;;;3.55;3.25;;;;;;;;;;5058064;28;20444;-89
2021/01/24 10:26:19;;;;;;;3.35;3.05;;;;;;;;;;5057818;28;20275;-89
2021/01/24 10:28:46;;;;;;;4.05;3.65;;;;;;;;;;5057874;28;20256;-90
2021/01/24 10:31:14;;;;;;;3.30;2.80;;;;;;;;;;5058239;28;20306;-90
2021/01/24 10:33:41;;;;;;;3.15;2.58;;;;;;;;;;5059178;28;20225;-90
2021/01/24 10:36:10;;;;;;;3.08;2.78;;;;;;;;;;5061041;28;20188;-89
2021/01/24 10:38:39;;;;;;;3.05;2.75;;;;;;;;;;5062833;28;20511;-89
2021/01/24 10:41:06;;;;;;;3.28;2.97;;;;;;;;;;5062582;28;20201;-88
2021/01/24 10:43:33;;;;;;;2.67;2.47;;;;;;;;;;5061873;28;20216;-88
2021/01/24 10:46:00;;;;;;;2.90;2.70;;;;;;;;;;5061795;28;20205;-88
2021/01/24 10:48:27;;;;;;;2.65;2.45;;;;;;;;;;5061472;28;20205;-88
2021/01/24 10:50:54;;;;;;;3.63;3.25;;;;;;;;;;5061478;28;20301;-88
2021/01/24 10:53:23;;;;;;;4.53;4.13;;;;;;;;;;5061446;28;20194;-88
2021/01/24 10:55:50;;;;;;;2.83;2.63;;;;;;;;;;5061065;28;20197;-87
2021/01/24 10:58:17;;;;;;;15.45;13.27;;;;;;;;;;5060906;28;20188;-86
2021/01/24 11:00:44;;;;;;;7.05;6.05;;;;;;;;;;5061091;28;20225;-87
2021/01/24 11:03:11;;;;;;;3.35;3.05;;;;;;;;;;5061117;28;20181;-88
2021/01/24 11:05:38;;;;;;;3.45;3.15;;;;;;;;;;5061625;28;20208;-88
2021/01/24 11:08:06;;;;;;;2.90;2.60;;;;;;;;;;5061664;28;20206;-88
2021/01/24 11:10:34;;;;;;;2.90;2.70;;;;;;;;;;5061162;28;20247;-89
2021/01/24 11:13:01;;;;;;;3.17;2.88;;;;;;;;;;5060860;28;20182;-89
2021/01/24 11:15:30;;;;;;;2.25;2.05;;;;;;;;;;5061273;28;20197;-90
2021/01/24 11:17:57;;;;;;;2.85;2.58;;;;;;;;;;5060502;28;20284;-88
2021/01/24 11:20:24;;;;;;;5.43;4.65;;;;;;;;;;5061478;28;20204;-88
2021/01/24 11:22:51;;;;;;;5.53;4.68;;;;;;;;;;5060885;28;20575;-89
2021/01/24 11:25:18;;;;;;;9.20;7.47;;;;;;;;;;5061630;28;20194;-89
2021/01/24 11:27:46;;;;;;;3.47;3.17;;;;;;;;;;5060879;28;20317;-89
2021/01/24 11:30:14;;;;;;;5.10;4.47;;;;;;;;;;5060333;28;20210;-89
2021/01/24 11:32:41;;;;;;;8.85;6.38;;;;;;;;;;5061056;28;20469;-89
2021/01/24 11:35:11;;;;;;;3.22;2.92;;;;;;;;;;5060641;28;20198;-88
2021/01/24 11:37:38;;;;;;;2.28;2.08;;;;;;;;;;5060811;28;20456;-88
2021/01/24 11:40:07;;;;;;;1.80;1.55;;;;;;;;;;5060623;28;20508;-88
2021/01/24 11:42:34;;;;;;;1.85;1.75;;;;;;;;;;5061325;28;20442;-89
2021/01/24 11:45:03;;;;;;;1.50;1.40;;;;;;;;;;5061192;28;20209;-88
2021/01/24 11:47:30;;;;;;;1.33;1.30;;;;;;;;;;5060878;28;20517;-88
2021/01/24 11:49:58;;;;;;;1.48;1.38;;;;;;;;;;5061138;28;20284;-89
2021/01/24 11:52:25;;;;;;;1.35;1.30;;;;;;;;;;5060361;28;20302;-89
2021/01/24 11:54:52;;;;;;;2.00;1.80;;;;;;;;;;5060636;28;20608;-90
2021/01/24 11:57:19;;;;;;;1.20;1.20;;;;;;;;;;5060730;28;20194;-90
2021/01/24 11:59:46;;;;;;;1.83;1.60;;;;;;;;;;5059898;28;20260;-89
2021/01/24 12:02:14;;;;;;;1.90;1.80;;;;;;;;;;5060207;28;20255;-91
2021/01/24 12:04:42;;;;;;;1.80;1.70;;;;;;;;;;5057457;28;20365;-89
2021/01/24 12:07:09;;;;;;;1.83;1.70;;;;;;;;;;5053324;28;20280;-88
2021/01/24 12:09:36;;;;;;;2.15;2.03;;;;;;;;;;5059959;28;20228;-88
2021/01/24 12:12:04;;;;;;;1.70;1.60;;;;;;;;;;5059161;28;20206;-87
2021/01/24 12:14:30;;;;;;;3.17;2.88;;;;;;;;;;5059798;28;20280;-88
2021/01/24 12:16:58;;;;;;;3.53;2.40;;;;;;;;;;5059515;28;20190;-90
2021/01/24 12:19:26;;;;;;;2.35;2.15;;;;;;;;;;5060263;28;20251;-88
2021/01/24 12:21:53;;;;;;;2.13;1.80;;;;;;;;;;5058838;28;20263;-88
2021/01/24 12:24:20;;;;;;;1.83;1.73;;;;;;;;;;5057609;28;20563;-89
2021/01/24 12:26:47;;;;;;;2.63;2.22;;;;;;;;;;5058231;28;20638;-90
2021/01/24 12:29:19;;;;;;;4.00;3.70;;;;;;;;;;5058550;28;20229;-89
2021/01/24 12:31:47;;;;;;;2.95;2.75;;;;;;;;;;5058930;28;20226;-89
2021/01/24 12:34:18;;;;;;;2.75;2.55;;;;;;;;;;5059053;28;20226;-89
2021/01/24 12:36:46;;;;;;;3.95;3.65;;;;;;;;;;5057816;28;20251;-86
2021/01/24 12:39:13;;;;;;;4.20;3.80;;;;;;;;;;5058804;28;20182;-89
2021/01/24 12:41:50;;;;;;;3.00;2.80;;;;;;;;;;5058434;28;20276;-88
2021/01/24 12:44:38;;;;;;;3.15;2.67;;;;;;;;;;5055285;28;20198;-87
2021/01/24 12:47:09;;;;;;;3.03;2.72;;;;;;;;;;5057871;28;20205;-87
2021/01/24 12:49:36;;;;;;;8.02;7.00;;;;;;;;;;5058441;28;20182;-86
2021/01/24 12:52:05;;;;;;;4.13;3.38;;;;;;;;;;5058200;28;20218;-86
2021/01/24 12:54:32;;;;;;;5.88;5.38;;;;;;;;;;5058333;28;20186;-86
2021/01/24 12:56:59;;;;;;;4.53;4.13;;;;;;;;;;5057831;28;20201;-87
2021/01/24 12:59:26;;;;;;;5.13;4.65;;;;;;;;;;5057445;28;20498;-86
2021/01/24 13:01:54;;;;;;;6.47;4.85;;;;;;;;;;5058176;28;20204;-86
2021/01/24 13:04:22;;;;;;;7.80;7.03;;;;;;;;;;5058471;28;20186;-90
2021/01/24 13:06:49;;;;;;;8.98;7.18;;;;;;;;;;5057677;28;20196;-88
2021/01/24 13:09:17;;;;;;;11.70;10.00;;;;;;;;;;5108377;22;20617;-86
2021/01/24 13:11:45;;;;;;;12.10;9.43;;;;;;;;;;5055257;28;20299;-86
2021/01/24 13:14:12;;;;;;;13.65;11.98;;;;;;;;;;5056434;28;20423;-87
2021/01/24 13:16:39;;;;;;;12.75;10.38;;;;;;;;;;5022594;28;20205;-86
2021/01/24 13:19:06;;;;;;;12.63;11.02;;;;;;;;;;5047553;28;20191;-87
2021/01/24 13:21:33;;;;;;;15.40;11.05;;;;;;;;;;5049744;28;20563;-87
2021/01/24 13:24:00;;;;;;;13.55;11.02;;;;;;;;;;5048177;28;20233;-87
2021/01/24 13:26:28;;;;;;;12.68;10.90;;;;;;;;;;5047954;28;20253;-87
2021/01/24 13:28:55;;;;;;;13.48;11.07;;;;;;;;;;5051601;28;20265;-87
2021/01/24 13:31:22;;;;;;;13.27;11.10;;;;;;;;;;5053490;28;20230;-85
2021/01/24 13:33:49;;;;;;;9.50;7.90;;;;;;;;;;5047156;28;20554;-86
2021/01/24 13:36:16;;;;;;;13.25;9.65;;;;;;;;;;5048210;28;20216;-86
2021/01/24 13:38:44;;;;;;;11.25;9.38;;;;;;;;;;5046682;28;20226;-87
2021/01/24 13:41:11;;;;;;;10.80;8.43;;;;;;;;;;5046563;28;20239;-87
2021/01/24 13:43:39;;;;;;;15.40;10.93;;;;;;;;;;5048390;28;20190;-87
2021/01/24 13:46:06;;;;;;;18.52;14.32;;;;;;;;;;5047144;28;20556;-85
2021/01/24 13:48:33;;;;;;;23.35;19.10;;;;;;;;;;5051254;28;20277;-86
2021/01/24 13:51:01;;;;;;;14.35;11.50;;;;;;;;;;5038091;28;20285;-89
2021/01/24 13:53:30;;;;;;;16.27;13.45;;;;;;;;;;5038363;28;20367;-88
2021/01/24 13:55:57;;;;;;;13.93;11.95;;;;;;;;;;5038502;28;20194;-90
2021/01/24 13:58:25;;;;;;;12.77;9.50;;;;;;;;;;5040624;28;20271;-87
2021/01/24 14:00:53;;;;;;;14.02;12.45;;;;;;;;;;5047188;28;20209;-89
2021/01/24 14:03:20;;;;;;;10.52;8.43;;;;;;;;;;5046172;28;20237;-87
2021/01/24 14:05:47;;;;;;;13.35;10.07;;;;;;;;;;5047852;28;20293;-87
2021/01/24 14:08:16;;;;;;;17.77;12.40;;;;;;;;;;5038537;28;20269;-88
2021/01/24 14:10:43;;;;;;;13.63;9.55;;;;;;;;;;5050030;28;20298;-88
2021/01/24 14:13:10;;;;;;;12.70;9.38;;;;;;;;;;5051169;28;20491;-86
2021/01/24 14:15:37;;;;;;;10.77;9.27;;;;;;;;;;5052211;28;20208;-87
2021/01/24 14:18:06;;;;;;;11.52;10.25;;;;;;;;;;5050368;28;20471;-87
2021/01/24 14:20:34;;;;;;;13.82;10.68;;;;;;;;;;5050302;28;20491;-87
2021/01/24 14:23:01;;;;;;;13.52;11.93;;;;;;;;;;5042077;28;20191;-87
2021/01/24 14:25:29;;;;;;;12.35;10.18;;;;;;;;;;5050680;28;20215;-86
2021/01/24 14:27:56;;;;;;;11.48;10.02;;;;;;;;;;5060962;28;20182;-88
2021/01/24 14:30:24;;;;;;;12.88;10.23;;;;;;;;;;5061825;28;20193;-87
2021/01/24 14:32:51;;;;;;;8.60;7.25;;;;;;;;;;5061250;28;20198;-90
2021/01/24 14:35:19;;;;;;;18.55;13.98;;;;;;;;;;5061551;28;20547;-89
2021/01/24 14:37:47;;;;;;;8.93;8.02;;;;;;;;;;5052203;28;20236;-88
2021/01/24 14:40:15;;;;;;;9.77;8.57;;;;;;;;;;5051500;28;20198;-88
2021/01/24 14:42:42;;;;;;;14.20;10.63;;;;;;;;;;5041140;28;20222;-88
2021/01/24 14:45:10;;;;;;;13.13;11.05;;;;;;;;;;5041694;28;20233;-87
2021/01/24 14:47:37;;;;;;;11.32;9.18;;;;;;;;;;5041687;28;20247;-87